Placita, New Mexico
Current Conditions -  °F | °C
As of 10:55 PM on Wednesday 26 Nov 2014 (Local Time) from KSKX Reporting Station
Clear Clear  
Wind Chill: 19°   Ceiling: Unl
Heat Index: 25°   Visibility: 10mi
Dew Point: 19°   Wind: 5mph
Humidity: 80%   Direction: 10°N
Pressure: 30.46"   Gusts: NA
Location:  36.1892°N, 105.688°W
Report Text: KSKX 270555Z AUTO 01004KT 10SM CLR M04/M07 A3046 RMK AO1 10060 21040 52014
Loading
Personal Weather Stations






























Interactive Weather Map New forecast layout! Learn more

10-Day Weather Forecast

Advertisements
Track Severe Weather on mobile